sensor_id;sensor_type;location;lat;lon;timestamp;pressure;altitude;pressure_sealevel;temperature;humidity
65760;BME280;52496;51.082;5.066;2024-01-27T00:01:49;103468.38;;;0.30;100.00
65760;BME280;52496;51.082;5.066;2024-01-27T00:04:19;103461.44;;;0.27;100.00
65760;BME280;52496;51.082;5.066;2024-01-27T00:06:50;103458.13;;;0.22;100.00
65760;BME280;52496;51.082;5.066;2024-01-27T00:09:20;103456.50;;;0.18;100.00
65760;BME280;52496;51.082;5.066;2024-01-27T00:11:51;103452.13;;;0.18;100.00
65760;BME280;52496;51.082;5.066;2024-01-27T00:14:21;103457.28;;;0.21;100.00
65760;BME280;52496;51.082;5.066;2024-01-27T00:16:51;103452.88;;;0.22;100.00
65760;BME280;52496;51.082;5.066;2024-01-27T00:19:22;103453.88;;;0.18;100.00
65760;BME280;52496;51.082;5.066;2024-01-27T00:21:52;103457.41;;;0.17;100.00
65760;BME280;52496;51.082;5.066;2024-01-27T00:24:23;103468.88;;;0.16;100.00
65760;BME280;52496;51.082;5.066;2024-01-27T00:26:53;103454.06;;;0.12;100.00
65760;BME280;52496;51.082;5.066;2024-01-27T00:29:24;103454.25;;;0.07;100.00
65760;BME280;52496;51.082;5.066;2024-01-27T00:31:54;103456.97;;;0.04;100.00
65760;BME280;52496;51.082;5.066;2024-01-27T00:34:25;103444.78;;;0.02;100.00
65760;BME280;52496;51.082;5.066;2024-01-27T00:36:55;103450.06;;;0.02;100.00
65760;BME280;52496;51.082;5.066;2024-01-27T00:39:26;103450.16;;;-0.02;100.00
65760;BME280;52496;51.082;5.066;2024-01-27T00:41:56;103446.69;;;-0.04;100.00
65760;BME280;52496;51.082;5.066;2024-01-27T00:44:28;103451.22;;;-0.07;100.00
65760;BME280;52496;51.082;5.066;2024-01-27T00:46:58;103455.66;;;-0.09;100.00
65760;BME280;52496;51.082;5.066;2024-01-27T00:49:29;103459.38;;;-0.15;100.00
65760;BME280;52496;51.082;5.066;2024-01-27T00:51:59;103451.63;;;-0.19;100.00
65760;BME280;52496;51.082;5.066;2024-01-27T00:54:30;103453.53;;;-0.25;100.00
65760;BME280;52496;51.082;5.066;2024-01-27T00:57:00;103461.59;;;-0.29;100.00
65760;BME280;52496;51.082;5.066;2024-01-27T00:59:31;103466.00;;;-0.30;100.00
65760;BME280;52496;51.082;5.066;2024-01-27T01:02:01;103463.50;;;-0.34;100.00
65760;BME280;52496;51.082;5.066;2024-01-27T01:04:32;103465.34;;;-0.36;100.00
65760;BME280;52496;51.082;5.066;2024-01-27T01:07:02;103466.28;;;-0.39;100.00
65760;BME280;52496;51.082;5.066;2024-01-27T01:09:33;103473.41;;;-0.42;100.00
65760;BME280;52496;51.082;5.066;2024-01-27T01:12:04;103467.44;;;-0.48;100.00
65760;BME280;52496;51.082;5.066;2024-01-27T01:14:34;103461.34;;;-0.50;100.00
65760;BME280;52496;51.082;5.066;2024-01-27T01:17:05;103463.22;;;-0.53;100.00
65760;BME280;52496;51.082;5.066;2024-01-27T01:19:38;103474.69;;;-0.56;100.00
65760;BME280;52496;51.082;5.066;2024-01-27T01:22:09;103471.38;;;-0.61;100.00
65760;BME280;52496;51.082;5.066;2024-01-27T01:24:39;103474.88;;;-0.62;100.00
65760;BME280;52496;51.082;5.066;2024-01-27T01:27:10;103477.66;;;-0.66;100.00
65760;BME280;52496;51.082;5.066;2024-01-27T01:29:40;103475.91;;;-0.67;100.00
65760;BME280;52496;51.082;5.066;2024-01-27T01:32:11;103477.75;;;-0.70;100.00
65760;BME280;52496;51.082;5.066;2024-01-27T01:34:41;103482.13;;;-0.70;100.00
65760;BME280;52496;51.082;5.066;2024-01-27T01:37:12;103472.53;;;-0.71;100.00
65760;BME280;52496;51.082;5.066;2024-01-27T01:39:43;103470.00;;;-0.74;100.00
65760;BME280;52496;51.082;5.066;2024-01-27T01:42:14;103476.19;;;-0.77;100.00
65760;BME280;52496;51.082;5.066;2024-01-27T01:44:44;103471.94;;;-0.81;100.00
65760;BME280;52496;51.082;5.066;2024-01-27T01:47:15;103465.94;;;-0.84;100.00
65760;BME280;52496;51.082;5.066;2024-01-27T01:49:45;103481.78;;;-0.87;100.00
65760;BME280;52496;51.082;5.066;2024-01-27T01:52:16;103481.88;;;-0.90;100.00
65760;BME280;52496;51.082;5.066;2024-01-27T01:54:50;103487.25;;;-0.95;100.00
65760;BME280;52496;51.082;5.066;2024-01-27T01:57:21;103481.25;;;-0.99;100.00
65760;BME280;52496;51.082;5.066;2024-01-27T01:59:51;103483.91;;;-1.00;100.00
65760;BME280;52496;51.082;5.066;2024-01-27T02:02:22;103476.94;;;-1.01;100.00
65760;BME280;52496;51.082;5.066;2024-01-27T02:04:52;103479.63;;;-1.03;100.00
65760;BME280;52496;51.082;5.066;2024-01-27T02:07:23;103486.75;;;-1.08;100.00
65760;BME280;52496;51.082;5.066;2024-01-27T02:09:53;103490.28;;;-1.09;100.00
65760;BME280;52496;51.082;5.066;2024-01-27T02:12:24;103485.03;;;-1.09;100.00
65760;BME280;52496;51.082;5.066;2024-01-27T02:14:54;103497.25;;;-1.08;100.00
65760;BME280;52496;51.082;5.066;2024-01-27T02:17:25;103492.94;;;-1.09;100.00
65760;BME280;52496;51.082;5.066;2024-01-27T02:19:55;103485.03;;;-1.09;100.00
65760;BME280;52496;51.082;5.066;2024-01-27T02:22:26;103473.72;;;-1.11;100.00
65760;BME280;52496;51.082;5.066;2024-01-27T02:24:56;103471.09;;;-1.11;100.00
65760;BME280;52496;51.082;5.066;2024-01-27T02:27:27;103463.28;;;-1.14;100.00
65760;BME280;52496;51.082;5.066;2024-01-27T02:29:57;103469.47;;;-1.15;100.00
65760;BME280;52496;51.082;5.066;2024-01-27T02:32:27;103462.53;;;-1.18;100.00
65760;BME280;52496;51.082;5.066;2024-01-27T02:34:58;103461.69;;;-1.20;100.00
65760;BME280;52496;51.082;5.066;2024-01-27T02:37:28;103469.63;;;-1.21;100.00
65760;BME280;52496;51.082;5.066;2024-01-27T02:39:59;103469.63;;;-1.21;100.00
65760;BME280;52496;51.082;5.066;2024-01-27T02:42:29;103475.78;;;-1.22;100.00
65760;BME280;52496;51.082;5.066;2024-01-27T02:45:00;103474.91;;;-1.23;100.00
65760;BME280;52496;51.082;5.066;2024-01-27T02:47:30;103477.59;;;-1.24;100.00
65760;BME280;52496;51.082;5.066;2024-01-27T02:50:00;103479.38;;;-1.25;100.00
65760;BME280;52496;51.082;5.066;2024-01-27T02:52:31;103486.41;;;-1.27;100.00
65760;BME280;52496;51.082;5.066;2024-01-27T02:55:02;103488.22;;;-1.29;100.00
65760;BME280;52496;51.082;5.066;2024-01-27T02:57:32;103493.53;;;-1.30;100.00
65760;BME280;52496;51.082;5.066;2024-01-27T03:00:03;103484.81;;;-1.32;100.00
65760;BME280;52496;51.082;5.066;2024-01-27T03:02:35;103488.38;;;-1.35;100.00
65760;BME280;52496;51.082;5.066;2024-01-27T03:05:05;103492.78;;;-1.35;100.00
65760;BME280;52496;51.082;5.066;2024-01-27T03:07:36;103496.31;;;-1.36;100.00
65760;BME280;52496;51.082;5.066;2024-01-27T03:10:07;103493.72;;;-1.38;100.00
65760;BME280;52496;51.082;5.066;2024-01-27T03:12:37;103492.88;;;-1.39;100.00
65760;BME280;52496;51.082;5.066;2024-01-27T03:15:08;103493.72;;;-1.38;100.00
65760;BME280;52496;51.082;5.066;2024-01-27T03:17:39;103487.69;;;-1.42;100.00
65760;BME280;52496;51.082;5.066;2024-01-27T03:20:10;103496.50;;;-1.43;100.00
65760;BME280;52496;51.082;5.066;2024-01-27T03:22:41;103493.88;;;-1.44;100.00
65760;BME280;52496;51.082;5.066;2024-01-27T03:25:12;103489.56;;;-1.45;100.00
65760;BME280;52496;51.082;5.066;2024-01-27T03:27:42;103493.13;;;-1.48;100.00
65760;BME280;52496;51.082;5.066;2024-01-27T03:30:13;103496.66;;;-1.49;100.00
65760;BME280;52496;51.082;5.066;2024-01-27T03:32:43;103492.25;;;-1.48;100.00
65760;BME280;52496;51.082;5.066;2024-01-27T03:35:14;103496.59;;;-1.47;100.00
65760;BME280;52496;51.082;5.066;2024-01-27T03:37:44;103496.66;;;-1.49;100.00
65760;BME280;52496;51.082;5.066;2024-01-27T03:40:15;103494.06;;;-1.50;100.00
65760;BME280;52496;51.082;5.066;2024-01-27T03:42:46;103494.09;;;-1.52;100.00
65760;BME280;52496;51.082;5.066;2024-01-27T03:45:16;103497.66;;;-1.54;100.00
65760;BME280;52496;51.082;5.066;2024-01-27T03:47:46;103499.47;;;-1.56;100.00
65760;BME280;52496;51.082;5.066;2024-01-27T03:50:17;103496.91;;;-1.58;100.00
65760;BME280;52496;51.082;5.066;2024-01-27T03:52:48;103490.81;;;-1.60;100.00
65760;BME280;52496;51.082;5.066;2024-01-27T03:55:18;103486.47;;;-1.61;100.00
65760;BME280;52496;51.082;5.066;2024-01-27T03:57:49;103493.44;;;-1.60;100.00
65760;BME280;52496;51.082;5.066;2024-01-27T04:00:20;103486.47;;;-1.61;100.00
65760;BME280;52496;51.082;5.066;2024-01-27T04:02:50;103483.03;;;-1.63;100.00
65760;BME280;52496;51.082;5.066;2024-01-27T04:05:21;103481.31;;;-1.64;100.00
65760;BME280;52496;51.082;5.066;2024-01-27T04:07:51;103488.28;;;-1.65;100.00
65760;BME280;52496;51.082;5.066;2024-01-27T04:10:22;103488.28;;;-1.63;100.00
65760;BME280;52496;51.082;5.066;2024-01-27T04:12:53;103484.75;;;-1.62;100.00
65760;BME280;52496;51.082;5.066;2024-01-27T04:15:24;103493.38;;;-1.58;100.00
65760;BME280;52496;51.082;5.066;2024-01-27T04:17:55;103495.16;;;-1.59;100.00
65760;BME280;52496;51.082;5.066;2024-01-27T04:20:25;103499.53;;;-1.58;100.00
65760;BME280;52496;51.082;5.066;2024-01-27T04:22:56;103506.50;;;-1.58;100.00
65760;BME280;52496;51.082;5.066;2024-01-27T04:25:26;103498.69;;;-1.60;100.00
65760;BME280;52496;51.082;5.066;2024-01-27T04:27:57;103496.97;;;-1.61;100.00
65760;BME280;52496;51.082;5.066;2024-01-27T04:30:27;103492.69;;;-1.65;100.00
65760;BME280;52496;51.082;5.066;2024-01-27T04:32:57;103495.31;;;-1.65;100.00
65760;BME280;52496;51.082;5.066;2024-01-27T04:35:29;103500.63;;;-1.68;100.00
65760;BME280;52496;51.082;5.066;2024-01-27T04:37:59;103502.47;;;-1.70;100.00
65760;BME280;52496;51.082;5.066;2024-01-27T04:40:30;103505.16;;;-1.73;100.00
65760;BME280;52496;51.082;5.066;2024-01-27T04:43:01;103509.53;;;-1.74;100.00
65760;BME280;52496;51.082;5.066;2024-01-27T04:45:32;103505.25;;;-1.76;100.00
65760;BME280;52496;51.082;5.066;2024-01-27T04:48:02;103511.38;;;-1.77;100.00
65760;BME280;52496;51.082;5.066;2024-01-27T04:50:33;103504.41;;;-1.78;100.00
65760;BME280;52496;51.082;5.066;2024-01-27T04:53:03;103495.72;;;-1.80;100.00
65760;BME280;52496;51.082;5.066;2024-01-27T04:55:34;103497.53;;;-1.82;100.00
65760;BME280;52496;51.082;5.066;2024-01-27T04:58:06;103489.69;;;-1.84;100.00
65760;BME280;52496;51.082;5.066;2024-01-27T05:00:37;103498.47;;;-1.85;100.00
65760;BME280;52496;51.082;5.066;2024-01-27T05:03:07;103496.69;;;-1.85;100.00
65760;BME280;52496;51.082;5.066;2024-01-27T05:05:43;103511.59;;;-1.87;100.00
65760;BME280;52496;51.082;5.066;2024-01-27T05:08:14;103497.69;;;-1.89;100.00
65760;BME280;52496;51.082;5.066;2024-01-27T05:10:45;103494.22;;;-1.91;100.00
65760;BME280;52496;51.082;5.066;2024-01-27T05:13:15;103488.16;;;-1.93;100.00
65760;BME280;52496;51.082;5.066;2024-01-27T05:15:45;103496.03;;;-1.93;100.00
65760;BME280;52496;51.082;5.066;2024-01-27T05:18:16;103493.44;;;-1.94;100.00
65760;BME280;52496;51.082;5.066;2024-01-27T05:20:46;103496.94;;;-1.95;100.00
65760;BME280;52496;51.082;5.066;2024-01-27T05:23:17;103503.09;;;-1.95;100.00
65760;BME280;52496;51.082;5.066;2024-01-27T05:25:47;103514.44;;;-1.94;100.00
65760;BME280;52496;51.082;5.066;2024-01-27T05:28:18;103514.44;;;-1.94;100.00
65760;BME280;52496;51.082;5.066;2024-01-27T05:30:48;103510.91;;;-1.93;100.00
65760;BME280;52496;51.082;5.066;2024-01-27T05:33:18;103507.41;;;-1.94;100.00
65760;BME280;52496;51.082;5.066;2024-01-27T05:35:49;103497.75;;;-1.92;100.00
65760;BME280;52496;51.082;5.066;2024-01-27T05:38:20;103488.22;;;-1.96;100.00
65760;BME280;52496;51.082;5.066;2024-01-27T05:40:50;103503.09;;;-1.95;100.00
65760;BME280;52496;51.082;5.066;2024-01-27T05:43:21;103508.34;;;-1.96;100.00
65760;BME280;52496;51.082;5.066;2024-01-27T05:45:52;103504.94;;;-2.00;100.00
65760;BME280;52496;51.082;5.066;2024-01-27T05:48:23;103503.28;;;-2.04;100.00
65760;BME280;52496;51.082;5.066;2024-01-27T05:50:58;103505.09;;;-2.06;100.00
65760;BME280;52496;51.082;5.066;2024-01-27T05:53:28;103499.84;;;-2.06;100.00
65760;BME280;52496;51.082;5.066;2024-01-27T05:55:59;103496.41;;;-2.08;100.00
65760;BME280;52496;51.082;5.066;2024-01-27T05:58:29;103495.50;;;-2.07;100.00
65760;BME280;52496;51.082;5.066;2024-01-27T06:01:00;103488.53;;;-2.08;100.00
65760;BME280;52496;51.082;5.066;2024-01-27T06:03:31;103492.09;;;-2.11;100.00
65760;BME280;52496;51.082;5.066;2024-01-27T06:06:02;103507.81;;;-2.11;100.00
65760;BME280;52496;51.082;5.066;2024-01-27T06:08:32;103509.56;;;-2.10;100.00
65760;BME280;52496;51.082;5.066;2024-01-27T06:11:03;103516.59;;;-2.12;100.00
65760;BME280;52496;51.082;5.066;2024-01-27T06:13:33;103512.28;;;-2.14;100.00
65760;BME280;52496;51.082;5.066;2024-01-27T06:16:08;103518.44;;;-2.15;100.00
65760;BME280;52496;51.082;5.066;2024-01-27T06:18:41;103513.22;;;-2.17;100.00
65760;BME280;52496;51.082;5.066;2024-01-27T06:21:12;103505.41;;;-2.18;100.00
65760;BME280;52496;51.082;5.066;2024-01-27T06:23:43;103505.47;;;-2.21;100.00
65760;BME280;52496;51.082;5.066;2024-01-27T06:26:14;103496.75;;;-2.23;100.00
65760;BME280;52496;51.082;5.066;2024-01-27T06:28:45;103507.31;;;-2.25;100.00
65760;BME280;52496;51.082;5.066;2024-01-27T06:31:15;103514.28;;;-2.25;100.00
65760;BME280;52496;51.082;5.066;2024-01-27T06:33:46;103509.03;;;-2.25;100.00
65760;BME280;52496;51.082;5.066;2024-01-27T06:36:16;103513.41;;;-2.24;100.00
65760;BME280;52496;51.082;5.066;2024-01-27T06:38:47;103503.78;;;-2.24;100.00
65760;BME280;52496;51.082;5.066;2024-01-27T06:41:17;103495.06;;;-2.24;100.00
65760;BME280;52496;51.082;5.066;2024-01-27T06:43:48;103511.63;;;-2.24;100.00
65760;BME280;52496;51.082;5.066;2024-01-27T06:46:18;103525.66;;;-2.25;100.00
65760;BME280;52496;51.082;5.066;2024-01-27T06:48:49;103526.59;;;-2.27;100.00
65760;BME280;52496;51.082;5.066;2024-01-27T06:51:19;103524.84;;;-2.28;100.00
65760;BME280;52496;51.082;5.066;2024-01-27T06:53:50;103521.34;;;-2.27;100.00
65760;BME280;52496;51.082;5.066;2024-01-27T06:56:20;103530.00;;;-2.25;100.00
65760;BME280;52496;51.082;5.066;2024-01-27T06:58:50;103543.13;;;-2.25;100.00
65760;BME280;52496;51.082;5.066;2024-01-27T07:01:21;103552.72;;;-2.24;100.00
65760;BME280;52496;51.082;5.066;2024-01-27T07:03:51;103550.91;;;-2.22;100.00
65760;BME280;52496;51.082;5.066;2024-01-27T07:06:22;103550.00;;;-2.20;100.00
65760;BME280;52496;51.082;5.066;2024-01-27T07:08:52;103539.44;;;-2.17;100.00
65760;BME280;52496;51.082;5.066;2024-01-27T07:11:22;103534.16;;;-2.15;100.00
65760;BME280;52496;51.082;5.066;2024-01-27T07:13:53;103530.69;;;-2.16;100.00
65760;BME280;52496;51.082;5.066;2024-01-27T07:16:24;103535.03;;;-2.16;100.00
65760;BME280;52496;51.082;5.066;2024-01-27T07:18:54;103533.31;;;-2.17;100.00
65760;BME280;52496;51.082;5.066;2024-01-27T07:21:25;103535.94;;;-2.16;100.00
65760;BME280;52496;51.082;5.066;2024-01-27T07:23:56;103528.94;;;-2.17;100.00
65760;BME280;52496;51.082;5.066;2024-01-27T07:26:27;103535.03;;;-2.15;100.00
65760;BME280;52496;51.082;5.066;2024-01-27T07:28:57;103528.88;;;-2.14;100.00
65760;BME280;52496;51.082;5.066;2024-01-27T07:31:28;103537.53;;;-2.10;100.00
65760;BME280;52496;51.082;5.066;2024-01-27T07:33:58;103527.88;;;-2.08;100.00
65760;BME280;52496;51.082;5.066;2024-01-27T07:36:29;103524.34;;;-2.07;100.00
65760;BME280;52496;51.082;5.066;2024-01-27T07:39:02;103533.03;;;-2.05;100.00
65760;BME280;52496;51.082;5.066;2024-01-27T07:41:35;103536.50;;;-2.03;100.00
65760;BME280;52496;51.082;5.066;2024-01-27T07:44:13;103537.28;;;-1.99;100.00
65760;BME280;52496;51.082;5.066;2024-01-27T07:46:44;103526.69;;;-1.95;100.00
65760;BME280;52496;51.082;5.066;2024-01-27T07:49:15;103522.19;;;-1.90;100.00
65760;BME280;52496;51.082;5.066;2024-01-27T07:51:45;103518.66;;;-1.89;100.00
65760;BME280;52496;51.082;5.066;2024-01-27T07:54:16;103523.03;;;-1.89;100.00
65760;BME280;52496;51.082;5.066;2024-01-27T07:56:47;103518.66;;;-1.89;100.00
65760;BME280;52496;51.082;5.066;2024-01-27T07:59:18;103533.44;;;-1.86;100.00
65760;BME280;52496;51.082;5.066;2024-01-27T08:01:48;103531.63;;;-1.82;100.00
65760;BME280;52496;51.082;5.066;2024-01-27T08:04:19;103526.19;;;-1.75;100.00
65760;BME280;52496;51.082;5.066;2024-01-27T08:06:50;103540.91;;;-1.69;100.00
65760;BME280;52496;51.082;5.066;2024-01-27T08:09:21;103529.50;;;-1.68;100.00
65760;BME280;52496;51.082;5.066;2024-01-27T08:11:51;103533.78;;;-1.64;100.00
65760;BME280;52496;51.082;5.066;2024-01-27T08:14:22;103539.84;;;-1.62;100.00
65760;BME280;52496;51.082;5.066;2024-01-27T08:16:53;103530.13;;;-1.58;100.00
65760;BME280;52496;51.082;5.066;2024-01-27T08:19:24;103530.03;;;-1.54;100.00
65760;BME280;52496;51.082;5.066;2024-01-27T08:21:54;103523.69;;;-1.45;100.00
65760;BME280;52496;51.082;5.066;2024-01-27T08:24:25;103527.81;;;-1.36;100.00
65760;BME280;52496;51.082;5.066;2024-01-27T08:26:57;103534.63;;;-1.29;100.00
65760;BME280;52496;51.082;5.066;2024-01-27T08:29:28;103523.94;;;-1.23;100.00
65760;BME280;52496;51.082;5.066;2024-01-27T08:31:58;103536.00;;;-1.16;100.00
65760;BME280;52496;51.082;5.066;2024-01-27T08:34:29;103549.69;;;-1.03;100.00
65760;BME280;52496;51.082;5.066;2024-01-27T08:37:01;103549.34;;;-0.91;100.00
65760;BME280;52496;51.082;5.066;2024-01-27T08:39:32;103552.66;;;-0.84;100.00
65760;BME280;52496;51.082;5.066;2024-01-27T08:42:03;103542.72;;;-0.75;100.00
65760;BME280;52496;51.082;5.066;2024-01-27T08:44:33;103539.84;;;-0.67;100.00
65760;BME280;52496;51.082;5.066;2024-01-27T08:47:05;103532.66;;;-0.60;100.00
65760;BME280;52496;51.082;5.066;2024-01-27T08:49:35;103539.44;;;-0.52;100.00
65760;BME280;52496;51.082;5.066;2024-01-27T08:52:06;103549.66;;;-0.42;100.00
65760;BME280;52496;51.082;5.066;2024-01-27T08:54:36;103550.25;;;-0.33;100.00
65760;BME280;52496;51.082;5.066;2024-01-27T08:57:07;103561.22;;;-0.20;100.00
65760;BME280;52496;51.082;5.066;2024-01-27T08:59:37;103560.00;;;-0.08;100.00
65760;BME280;52496;51.082;5.066;2024-01-27T09:02:08;103557.78;;;0.06;100.00
65760;BME280;52496;51.082;5.066;2024-01-27T09:04:38;103553.00;;;0.19;100.00
65760;BME280;52496;51.082;5.066;2024-01-27T09:07:09;103538.59;;;0.29;100.00
65760;BME280;52496;51.082;5.066;2024-01-27T09:09:39;103548.72;;;0.41;100.00
65760;BME280;52496;51.082;5.066;2024-01-27T09:12:10;103548.19;;;0.57;100.00
65760;BME280;52496;51.082;5.066;2024-01-27T09:14:40;103549.41;;;0.73;100.00
65760;BME280;52496;51.082;5.066;2024-01-27T09:17:11;103530.41;;;0.88;100.00
65760;BME280;52496;51.082;5.066;2024-01-27T09:19:42;103534.19;;;1.05;100.00
65760;BME280;52496;51.082;5.066;2024-01-27T09:22:13;103543.44;;;1.17;100.00
65760;BME280;52496;51.082;5.066;2024-01-27T09:24:43;103551.72;;;1.29;100.00
65760;BME280;52496;51.082;5.066;2024-01-27T09:27:14;103560.09;;;1.41;100.00
65760;BME280;52496;51.082;5.066;2024-01-27T09:29:44;103563.28;;;1.49;100.00
65760;BME280;52496;51.082;5.066;2024-01-27T09:32:15;103569.84;;;1.62;100.00
65760;BME280;52496;51.082;5.066;2024-01-27T09:34:46;103575.41;;;1.76;100.00
65760;BME280;52496;51.082;5.066;2024-01-27T09:37:16;103573.91;;;1.93;100.00
65760;BME280;52496;51.082;5.066;2024-01-27T09:39:47;103572.38;;;2.09;100.00
65760;BME280;52496;51.082;5.066;2024-01-27T09:42:20;103568.13;;;2.27;100.00
65760;BME280;52496;51.082;5.066;2024-01-27T09:44:52;103571.81;;;2.43;100.00
65760;BME280;52496;51.082;5.066;2024-01-27T09:47:24;103586.13;;;2.60;100.00
65760;BME280;52496;51.082;5.066;2024-01-27T09:49:55;103590.81;;;2.73;100.00
65760;BME280;52496;51.082;5.066;2024-01-27T09:52:25;103586.59;;;2.90;100.00
65760;BME280;52496;51.082;5.066;2024-01-27T09:54:56;103589.31;;;3.07;100.00
65760;BME280;52496;51.082;5.066;2024-01-27T09:57:27;103588.66;;;3.22;100.00
65760;BME280;52496;51.082;5.066;2024-01-27T09:59:58;103588.88;;;3.37;100.00
65760;BME280;52496;51.082;5.066;2024-01-27T10:02:29;103590.97;;;3.49;100.00
65760;BME280;52496;51.082;5.066;2024-01-27T10:05:01;103590.25;;;3.64;100.00
65760;BME280;52496;51.082;5.066;2024-01-27T10:07:32;103591.41;;;3.78;100.00
65760;BME280;52496;51.082;5.066;2024-01-27T10:10:03;103595.19;;;3.91;100.00
65760;BME280;52496;51.082;5.066;2024-01-27T10:12:39;103596.31;;;4.04;100.00
65760;BME280;52496;51.082;5.066;2024-01-27T10:15:29;103594.78;;;4.18;100.00
65760;BME280;52496;51.082;5.066;2024-01-27T10:18:06;103592.28;;;4.32;100.00
65760;BME280;52496;51.082;5.066;2024-01-27T10:20:39;103602.28;;;4.44;100.00
65760;BME280;52496;51.082;5.066;2024-01-27T10:23:10;103602.47;;;4.58;100.00
65760;BME280;52496;51.082;5.066;2024-01-27T10:25:44;103600.91;;;4.72;100.00
65760;BME280;52496;51.082;5.066;2024-01-27T10:28:15;103616.03;;;4.87;100.00
65760;BME280;52496;51.082;5.066;2024-01-27T10:30:45;103617.09;;;5.00;100.00
65760;BME280;52496;51.082;5.066;2024-01-27T10:33:18;103618.31;;;5.11;100.00
65760;BME280;52496;51.082;5.066;2024-01-27T10:35:57;103612.22;;;5.26;100.00
65760;BME280;52496;51.082;5.066;2024-01-27T10:38:38;103615.09;;;5.39;100.00
65760;BME280;52496;51.082;5.066;2024-01-27T10:41:09;103621.50;;;5.50;100.00
65760;BME280;52496;51.082;5.066;2024-01-27T10:43:44;103610.22;;;5.63;100.00
65760;BME280;52496;51.082;5.066;2024-01-27T10:46:15;103609.47;;;5.77;100.00
65760;BME280;52496;51.082;5.066;2024-01-27T10:48:52;103605.09;;;5.91;100.00
65760;BME280;52496;51.082;5.066;2024-01-27T10:51:30;103602.56;;;6.06;100.00
65760;BME280;52496;51.082;5.066;2024-01-27T10:54:03;103598.25;;;6.19;100.00
65760;BME280;52496;51.082;5.066;2024-01-27T10:56:34;103592.81;;;6.36;100.00
65760;BME280;52496;51.082;5.066;2024-01-27T10:59:04;103589.44;;;6.49;100.00
65760;BME280;52496;51.082;5.066;2024-01-27T11:01:40;103584.94;;;6.65;100.00
65760;BME280;52496;51.082;5.066;2024-01-27T11:04:12;103587.81;;;6.76;100.00
65760;BME280;52496;51.082;5.066;2024-01-27T11:06:44;103582.41;;;6.92;100.00
65760;BME280;52496;51.082;5.066;2024-01-27T11:09:15;103585.34;;;7.02;100.00
65760;BME280;52496;51.082;5.066;2024-01-27T11:11:46;103590.13;;;7.11;100.00
65760;BME280;52496;51.082;5.066;2024-01-27T11:14:17;103580.63;;;7.21;100.00
65760;BME280;52496;51.082;5.066;2024-01-27T11:16:48;103588.03;;;7.30;100.00
65760;BME280;52496;51.082;5.066;2024-01-27T11:19:24;103582.69;;;7.45;100.00
65760;BME280;52496;51.082;5.066;2024-01-27T11:22:03;103584.38;;;7.60;100.00
65760;BME280;52496;51.082;5.066;2024-01-27T11:24:34;103583.72;;;7.71;100.00
65760;BME280;52496;51.082;5.066;2024-01-27T11:27:06;103583.19;;;7.78;100.00
65760;BME280;52496;51.082;5.066;2024-01-27T11:29:47;103579.00;;;7.89;100.00
65760;BME280;52496;51.082;5.066;2024-01-27T11:32:17;103571.34;;;7.97;100.00
65760;BME280;52496;51.082;5.066;2024-01-27T11:34:48;103576.06;;;8.06;100.00
65760;BME280;52496;51.082;5.066;2024-01-27T11:37:18;103579.84;;;8.16;100.00
65760;BME280;52496;51.082;5.066;2024-01-27T11:40:04;103585.50;;;8.24;100.00
65760;BME280;52496;51.082;5.066;2024-01-27T11:42:36;103584.91;;;8.34;100.00
65760;BME280;52496;51.082;5.066;2024-01-27T11:45:08;103578.13;;;8.42;100.00
65760;BME280;52496;51.082;5.066;2024-01-27T11:47:39;103576.56;;;8.53;100.00
65760;BME280;52496;51.082;5.066;2024-01-27T11:50:09;103567.31;;;8.58;100.00
65760;BME280;52496;51.082;5.066;2024-01-27T11:52:41;103574.56;;;8.69;100.00
65760;BME280;52496;51.082;5.066;2024-01-27T11:55:11;103575.63;;;8.79;100.00
65760;BME280;52496;51.082;5.066;2024-01-27T11:57:42;103567.84;;;8.89;100.00
65760;BME280;52496;51.082;5.066;2024-01-27T12:00:13;103563.56;;;8.99;100.00
65760;BME280;52496;51.082;5.066;2024-01-27T12:02:44;103558.34;;;9.10;100.00
65760;BME280;52496;51.082;5.066;2024-01-27T12:05:14;103565.16;;;9.14;100.00
65760;BME280;52496;51.082;5.066;2024-01-27T12:07:45;103565.38;;;9.11;100.00
65760;BME280;52496;51.082;5.066;2024-01-27T12:10:16;103567.50;;;9.06;100.00
65760;BME280;52496;51.082;5.066;2024-01-27T12:12:46;103564.34;;;9.01;100.00
65760;BME280;52496;51.082;5.066;2024-01-27T12:15:17;103550.44;;;8.96;100.00
65760;BME280;52496;51.082;5.066;2024-01-27T12:17:51;103552.78;;;8.88;100.00
65760;BME280;52496;51.082;5.066;2024-01-27T12:20:25;103561.97;;;8.84;100.00
65760;BME280;52496;51.082;5.066;2024-01-27T12:23:06;103549.19;;;8.89;100.00
65760;BME280;52496;51.082;5.066;2024-01-27T12:25:36;103540.59;;;9.09;100.00
65760;BME280;52496;51.082;5.066;2024-01-27T12:28:08;103542.19;;;9.25;100.00
65760;BME280;52496;51.082;5.066;2024-01-27T12:30:39;103529.66;;;9.38;100.00
65760;BME280;52496;51.082;5.066;2024-01-27T12:33:12;103526.81;;;9.52;100.00
65760;BME280;52496;51.082;5.066;2024-01-27T12:35:42;103526.69;;;9.67;100.00
65760;BME280;52496;51.082;5.066;2024-01-27T12:38:13;103524.00;;;9.67;100.00
65760;BME280;52496;51.082;5.066;2024-01-27T12:40:44;103519.25;;;9.59;100.00
65760;BME280;52496;51.082;5.066;2024-01-27T12:43:15;103521.78;;;9.60;100.00
65760;BME280;52496;51.082;5.066;2024-01-27T12:45:45;103515.91;;;9.55;100.00
65760;BME280;52496;51.082;5.066;2024-01-27T12:48:16;103513.47;;;9.52;100.00
65760;BME280;52496;51.082;5.066;2024-01-27T12:50:46;103515.41;;;9.50;100.00
65760;BME280;52496;51.082;5.066;2024-01-27T12:53:17;103524.06;;;9.54;100.00
65760;BME280;52496;51.082;5.066;2024-01-27T12:55:48;103524.69;;;9.57;100.00
65760;BME280;52496;51.082;5.066;2024-01-27T12:58:18;103520.19;;;9.58;100.00
65760;BME280;52496;51.082;5.066;2024-01-27T13:00:49;103512.34;;;9.68;100.00
65760;BME280;52496;51.082;5.066;2024-01-27T13:03:19;103507.06;;;9.79;100.00